createdAt,value
2023-10-26T00:02:13.605Z,84719.78
2023-10-26T00:04:41.021Z,84695.53
2023-10-26T00:07:08.376Z,84721.50
2023-10-26T00:09:36.136Z,84713.50
2023-10-26T00:12:04.032Z,84718.59
2023-10-26T00:14:31.577Z,84727.13
2023-10-26T00:16:59.089Z,84724.22
2023-10-26T00:19:26.467Z,84723.00
2023-10-26T00:22:49.541Z,84730.28
2023-10-26T00:25:36.345Z,84714.81
2023-10-26T00:28:03.734Z,84724.22
2023-10-26T00:30:31.238Z,84712.66
2023-10-26T00:32:58.858Z,84715.53
2023-10-26T00:35:26.327Z,84717.66
2023-10-26T00:37:53.926Z,84715.72
2023-10-26T00:40:22.100Z,84718.38
2023-10-26T00:42:49.605Z,84721.06
2023-10-26T00:45:17.625Z,84714.53
2023-10-26T00:47:45.939Z,84715.31
2023-10-26T00:50:13.535Z,84721.38
2023-10-26T00:52:41.337Z,84727.94
2023-10-26T00:55:11.183Z,84727.72
2023-10-26T00:57:39.178Z,84723.59
2023-10-26T01:00:09.317Z,84726.00
2023-10-26T01:02:37.811Z,84721.16
2023-10-26T01:05:05.962Z,84712.47
2023-10-26T01:07:33.458Z,84716.31
2023-10-26T01:10:01.625Z,84728.22
2023-10-26T01:12:29.390Z,84709.91
2023-10-26T01:14:57.066Z,84729.44
2023-10-26T01:17:25.458Z,84724.31
2023-10-26T01:19:53.084Z,84724.78
2023-10-26T01:22:20.624Z,84731.81
2023-10-26T01:24:47.976Z,84727.72
2023-10-26T01:27:16.074Z,84725.53
2023-10-26T01:29:43.540Z,84729.16
2023-10-26T01:32:11.233Z,84727.72
2023-10-26T01:34:40.124Z,84736.47
2023-10-26T01:37:07.718Z,84738.91
2023-10-26T01:39:35.437Z,84736.22
2023-10-26T01:42:02.964Z,84739.84
2023-10-26T01:44:30.452Z,84732.81
2023-10-26T01:46:58.067Z,84730.88
2023-10-26T01:49:25.418Z,84729.66
2023-10-26T01:51:52.760Z,84723.16
2023-10-26T01:54:20.121Z,84734.56
2023-10-26T01:56:47.608Z,84727.00
2023-10-26T01:59:15.597Z,84706.50
2023-10-26T02:01:43.536Z,84731.66
2023-10-26T02:04:11.085Z,84728.75
2023-10-26T02:06:38.573Z,84736.06
2023-10-26T02:09:06.372Z,84702.97
2023-10-26T02:11:33.883Z,84738.75
2023-10-26T02:14:01.253Z,84737.50
2023-10-26T02:16:28.611Z,84735.09
2023-10-26T02:18:56.053Z,84741.69
2023-10-26T02:21:23.618Z,84736.09
2023-10-26T02:23:51.379Z,84732.47
2023-10-26T02:26:19.173Z,84741.91
2023-10-26T02:28:46.466Z,84738.00
2023-10-26T02:31:14.234Z,84743.13
2023-10-26T02:33:42.437Z,84740.44
2023-10-26T02:36:11.093Z,84737.56
2023-10-26T02:38:38.665Z,84736.56
2023-10-26T02:41:06.729Z,84735.81
2023-10-26T02:43:34.175Z,84740.69
2023-10-26T02:46:03.651Z,84738.78
2023-10-26T02:48:31.036Z,84746.03
2023-10-26T02:50:58.463Z,84748.69
2023-10-26T02:53:26.531Z,84748.69
2023-10-26T02:55:54.839Z,84747.25
2023-10-26T02:58:22.298Z,84739.28
2023-10-26T03:00:49.953Z,84746.78
2023-10-26T03:03:17.440Z,84741.22
2023-10-26T03:05:45.157Z,84748.72
2023-10-26T03:08:13.221Z,84752.63
2023-10-26T03:10:40.771Z,84759.41
2023-10-26T03:13:08.296Z,84758.72
2023-10-26T03:15:35.661Z,84752.63
2023-10-26T03:18:03.376Z,84754.78
2023-10-26T03:20:33.162Z,84746.56
2023-10-26T03:23:00.674Z,84738.09
2023-10-26T03:25:28.852Z,84748.19
2023-10-26T03:27:57.949Z,84747.97
2023-10-26T03:30:25.477Z,84741.94
2023-10-26T03:32:53.224Z,84747.78
2023-10-26T03:35:20.855Z,84742.63
2023-10-26T03:37:48.180Z,84741.16
2023-10-26T03:40:16.168Z,84746.28
2023-10-26T03:42:43.725Z,84750.69
2023-10-26T03:45:11.624Z,84751.91
2023-10-26T03:47:40.880Z,84754.06
2023-10-26T03:50:08.671Z,84753.63
2023-10-26T03:52:36.384Z,84722.78
2023-10-26T03:55:05.756Z,84750.22
2023-10-26T03:57:35.170Z,84750.22
2023-10-26T04:00:04.627Z,84755.34
2023-10-26T04:02:39.277Z,84762.41
2023-10-26T04:05:07.801Z,84759.72
2023-10-26T04:07:35.622Z,84754.44
2023-10-26T04:10:06.884Z,84764.63
2023-10-26T04:12:34.634Z,84765.13
2023-10-26T04:15:02.361Z,84764.63
2023-10-26T04:17:31.864Z,84770.91
2023-10-26T04:19:59.095Z,84777.00
2023-10-26T04:22:28.350Z,84781.81
2023-10-26T04:24:55.671Z,84768.47
2023-10-26T04:27:23.188Z,84772.06
2023-10-26T04:29:51.548Z,84772.31
2023-10-26T04:32:19.104Z,84775.94
2023-10-26T04:34:46.588Z,84787.09
2023-10-26T04:37:14.118Z,84789.25
2023-10-26T04:39:45.020Z,84784.84
2023-10-26T04:42:14.279Z,84785.63
2023-10-26T04:44:42.193Z,84789.25
2023-10-26T04:47:09.867Z,84785.84
2023-10-26T04:49:37.399Z,84792.84
2023-10-26T04:52:05.285Z,84792.84
2023-10-26T04:54:33.339Z,84790.69
2023-10-26T04:57:00.777Z,84792.84
2023-10-26T04:59:28.132Z,84794.59
2023-10-26T05:01:55.996Z,84805.28
2023-10-26T05:04:23.405Z,84804.53
2023-10-26T05:06:52.482Z,84813.28
2023-10-26T05:09:20.324Z,84814.28
2023-10-26T05:11:47.943Z,84815.94
2023-10-26T05:14:15.363Z,84802.44
2023-10-26T05:16:43.155Z,84816.00
2023-10-26T05:19:10.571Z,84814.53
2023-10-26T05:21:37.924Z,84805.81
2023-10-26T05:24:05.798Z,84800.25
2023-10-26T05:26:33.207Z,84810.19
2023-10-26T05:29:00.547Z,84812.69
2023-10-26T05:31:28.274Z,84809.03
2023-10-26T05:33:56.045Z,84800.56
2023-10-26T05:36:23.499Z,84787.66
2023-10-26T05:38:51.790Z,84812.81
2023-10-26T05:41:19.464Z,84810.63
2023-10-26T05:43:46.937Z,84780.41
2023-10-26T05:46:14.522Z,84801.78
2023-10-26T05:48:42.135Z,84812.25
2023-10-26T05:51:09.528Z,84804.22
2023-10-26T05:53:37.078Z,84812.69
2023-10-26T05:56:05.500Z,84809.03
2023-10-26T05:58:32.968Z,84814.63
2023-10-26T06:01:01.354Z,84815.63
2023-10-26T06:03:29.072Z,84819.50
2023-10-26T06:06:01.676Z,84815.38
2023-10-26T06:08:29.216Z,84819.72
2023-10-26T06:10:59.484Z,84806.34
2023-10-26T06:13:27.197Z,84800.06
2023-10-26T06:15:55.016Z,84796.66
2023-10-26T06:18:22.425Z,84800.34
2023-10-26T06:21:00.078Z,84797.19
2023-10-26T06:23:29.361Z,84785.09
2023-10-26T06:26:00.496Z,84798.31
2023-10-26T06:28:29.029Z,84805.59
2023-10-26T06:30:57.432Z,84809.00
2023-10-26T06:33:26.811Z,84791.84
2023-10-26T06:35:54.290Z,84799.47
2023-10-26T06:38:22.082Z,84796.47
2023-10-26T06:40:49.564Z,84797.44
2023-10-26T06:43:16.937Z,84792.91
2023-10-26T06:45:44.293Z,84797.81
2023-10-26T06:48:12.803Z,84796.59
2023-10-26T06:50:40.550Z,84794.91
2023-10-26T06:53:08.088Z,84793.69
2023-10-26T06:55:35.416Z,84783.00
2023-10-26T06:58:02.805Z,84782.00
2023-10-26T07:00:30.529Z,84777.66
2023-10-26T07:02:58.511Z,84786.38
2023-10-26T07:05:27.167Z,84784.44
2023-10-26T07:07:54.555Z,84778.16
2023-10-26T07:10:22.029Z,84786.78
2023-10-26T07:12:49.373Z,84780.97
2023-10-26T07:15:17.888Z,84780.97
2023-10-26T07:17:45.841Z,84776.66
2023-10-26T07:20:16.372Z,84781.44
2023-10-26T07:22:44.151Z,84782.13
2023-10-26T07:25:12.410Z,84780.94
2023-10-26T07:27:47.553Z,84777.81
2023-10-26T07:30:21.350Z,84778.75
2023-10-26T07:32:50.339Z,84781.16
2023-10-26T07:35:17.781Z,84781.22
2023-10-26T07:37:55.144Z,84777.34
2023-10-26T07:40:34.328Z,84773.97
2023-10-26T07:43:01.854Z,84783.81
2023-10-26T07:45:29.570Z,84771.13
2023-10-26T07:48:01.965Z,84767.28
2023-10-26T07:50:30.427Z,84783.34
2023-10-26T07:52:58.366Z,84776.31
2023-10-26T07:55:26.118Z,84774.63
2023-10-26T07:57:53.394Z,84774.38
2023-10-26T08:00:21.102Z,84773.56
2023-10-26T08:02:48.724Z,84767.63
2023-10-26T08:05:16.979Z,84751.19
2023-10-26T08:07:46.092Z,84760.66
2023-10-26T08:10:13.546Z,84750.03
2023-10-26T08:12:41.374Z,84753.19
2023-10-26T08:16:06.272Z,84751.47
2023-10-26T08:17:56.455Z,84758.47
2023-10-26T08:20:24.037Z,84743.41
2023-10-26T08:22:51.839Z,84749.44
2023-10-26T08:25:22.547Z,84736.59
2023-10-26T08:27:52.252Z,84745.09
2023-10-26T08:30:19.669Z,84726.19
2023-10-26T08:32:47.531Z,84727.69
2023-10-26T08:35:15.913Z,84720.81
2023-10-26T08:37:43.478Z,84716.19
2023-10-26T08:40:12.827Z,84712.03
2023-10-26T08:42:41.010Z,84712.22
2023-10-26T08:45:23.625Z,84707.34
2023-10-26T08:47:52.227Z,84691.56
2023-10-26T08:50:25.040Z,84690.75
2023-10-26T08:52:55.598Z,84683.19
2023-10-26T08:55:23.195Z,84685.66
2023-10-26T08:57:56.134Z,84677.09
2023-10-26T09:00:24.187Z,84686.56
2023-10-26T09:02:52.390Z,84672.03
2023-10-26T09:05:20.402Z,84673.31
2023-10-26T09:07:47.921Z,84675.72
2023-10-26T09:10:29.718Z,84679.56
2023-10-26T09:13:07.654Z,84668.44
2023-10-26T09:15:51.622Z,84668.44
2023-10-26T09:18:19.432Z,84663.31
2023-10-26T09:21:02.808Z,84665.19
2023-10-26T09:23:32.727Z,84657.38
2023-10-26T09:26:09.488Z,84654.69
2023-10-26T09:28:54.194Z,84648.84
2023-10-26T09:31:24.214Z,84653.69
2023-10-26T09:33:52.787Z,84648.84
2023-10-26T09:36:24.301Z,84653.56
2023-10-26T09:38:52.422Z,84651.47
2023-10-26T09:41:21.429Z,84648.78
2023-10-26T09:43:49.494Z,84650.00
2023-10-26T09:46:19.511Z,84644.25
2023-10-26T09:48:48.126Z,84639.97
2023-10-26T09:51:16.536Z,84631.78
2023-10-26T09:53:48.391Z,84640.19
2023-10-26T09:56:24.521Z,84619.38
2023-10-26T09:58:54.464Z,84628.47
2023-10-26T10:01:39.424Z,84622.47
2023-10-26T10:04:12.483Z,84581.31
2023-10-26T10:06:50.133Z,84622.78
2023-10-26T10:09:25.956Z,84611.06
2023-10-26T10:12:06.054Z,84617.56
2023-10-26T10:14:48.394Z,84616.78
2023-10-26T10:17:20.528Z,84609.03
2023-10-26T10:20:08.913Z,84608.97
2023-10-26T10:22:38.460Z,84599.81
2023-10-26T10:25:06.738Z,84600.22
2023-10-26T10:27:35.282Z,84600.84
2023-10-26T10:30:09.796Z,84602.97
2023-10-26T10:32:46.695Z,84595.00
2023-10-26T10:35:28.871Z,84607.53
2023-10-26T10:38:22.576Z,84599.78
2023-10-26T10:40:56.368Z,84599.78
2023-10-26T10:43:47.451Z,84601.94
2023-10-26T10:46:27.723Z,84600.06
2023-10-26T10:49:06.034Z,84599.19
2023-10-26T10:51:45.380Z,84597.41
2023-10-26T10:54:33.590Z,84597.81
2023-10-26T10:57:06.453Z,84610.75
2023-10-26T10:59:34.001Z,84594.78
2023-10-26T11:02:15.239Z,84593.47
2023-10-26T11:05:02.437Z,84601.78
2023-10-26T11:07:37.242Z,84604.38
2023-10-26T11:10:05.316Z,84598.31
2023-10-26T11:12:34.302Z,84599.25
2023-10-26T11:15:02.761Z,84597.00
2023-10-26T11:17:33.617Z,84599.09
2023-10-26T11:20:01.023Z,84598.16
2023-10-26T11:22:29.475Z,84608.13
2023-10-26T11:24:57.000Z,84606.88
2023-10-26T11:27:24.425Z,84610.91
2023-10-26T11:30:09.785Z,84601.03
2023-10-26T11:32:37.422Z,84599.81
2023-10-26T11:35:10.417Z,84603.94
2023-10-26T11:37:49.042Z,84595.97
2023-10-26T11:40:18.116Z,84600.59
2023-10-26T11:43:07.378Z,84604.94
2023-10-26T11:45:51.817Z,84603.72
2023-10-26T11:48:29.006Z,84603.50
2023-10-26T11:50:56.690Z,84605.94
2023-10-26T11:53:25.299Z,84606.38
2023-10-26T11:55:53.642Z,84610.09
2023-10-26T11:58:20.977Z,84601.72
2023-10-26T12:00:48.364Z,84603.75
2023-10-26T12:03:16.315Z,84604.66
2023-10-26T12:05:43.923Z,84588.47
2023-10-26T12:08:11.975Z,84606.84
2023-10-26T12:10:41.627Z,84622.38
2023-10-26T12:13:09.068Z,84613.34
2023-10-26T12:15:37.614Z,84611.59
2023-10-26T12:18:05.670Z,84603.38
2023-10-26T12:20:33.509Z,84609.66
2023-10-26T12:23:01.093Z,84611.88
2023-10-26T12:25:28.472Z,84599.53
2023-10-26T12:28:21.745Z,84608.22
2023-10-26T12:30:43.644Z,84608.41
2023-10-26T12:33:11.375Z,84609.88
2023-10-26T12:35:38.725Z,84618.78
2023-10-26T12:38:06.030Z,84613.41
2023-10-26T12:40:33.902Z,84617.56
2023-10-26T12:43:01.588Z,84615.50
2023-10-26T12:45:29.123Z,84607.59
2023-10-26T12:47:57.201Z,84621.16
2023-10-26T12:50:24.657Z,84618.47
2023-10-26T12:52:52.263Z,84623.09
2023-10-26T12:55:22.289Z,84620.00
2023-10-26T12:57:50.355Z,84620.78
2023-10-26T13:00:18.263Z,84613.34
2023-10-26T13:02:45.682Z,84614.72
2023-10-26T13:05:13.113Z,84615.59
2023-10-26T13:07:40.481Z,84610.03
2023-10-26T13:10:08.573Z,84611.56
2023-10-26T13:12:36.132Z,84612.88
2023-10-26T13:15:05.306Z,84625.84
2023-10-26T13:17:34.091Z,84621.72
2023-10-26T13:20:02.010Z,84629.09
2023-10-26T13:22:30.774Z,84625.94
2023-10-26T13:24:58.301Z,84625.19
2023-10-26T13:27:27.056Z,84603.44
2023-10-26T13:29:54.813Z,84631.66
2023-10-26T13:32:23.129Z,84625.78
2023-10-26T13:34:50.499Z,84632.88
2023-10-26T13:37:17.846Z,84634.53
2023-10-26T13:39:45.637Z,84624.75
2023-10-26T13:42:13.138Z,84628.81
2023-10-26T13:44:40.467Z,84622.31
2023-10-26T13:47:07.828Z,84621.28
2023-10-26T13:49:35.167Z,84626.00
2023-10-26T13:52:02.669Z,84627.16
2023-10-26T13:54:30.162Z,84634.00
2023-10-26T13:56:58.013Z,84622.25
2023-10-26T13:59:25.762Z,84643.50
2023-10-26T14:01:53.602Z,84632.69
2023-10-26T14:04:21.096Z,84635.47
2023-10-26T14:06:48.801Z,84646.97
2023-10-26T14:09:16.917Z,84612.63
2023-10-26T14:11:44.612Z,84644.31
2023-10-26T14:14:13.500Z,84644.81
2023-10-26T14:16:41.187Z,84647.03
2023-10-26T14:19:10.241Z,84643.94
2023-10-26T14:21:38.024Z,84650.22
2023-10-26T14:24:05.682Z,84650.81
2023-10-26T14:26:33.016Z,84631.94
2023-10-26T14:29:00.855Z,84660.22
2023-10-26T14:31:29.244Z,84658.34
2023-10-26T14:33:56.914Z,84652.69
2023-10-26T14:36:24.413Z,84648.63
2023-10-26T14:38:52.285Z,84642.22
2023-10-26T14:41:19.616Z,84662.53
2023-10-26T14:43:47.383Z,84659.56
2023-10-26T14:46:15.193Z,84651.66
2023-10-26T14:48:42.792Z,84643.94
2023-10-26T14:51:10.286Z,84629.63
2023-10-26T14:53:37.882Z,84661.13
2023-10-26T14:56:05.890Z,84660.78
2023-10-26T14:58:33.441Z,84669.75
2023-10-26T15:01:01.022Z,84670.38
2023-10-26T15:03:28.614Z,84669.16
2023-10-26T15:05:59.978Z,84671.03
2023-10-26T15:08:27.348Z,84643.19
2023-10-26T15:10:55.626Z,84674.97
2023-10-26T15:13:43.879Z,84675.97
2023-10-26T15:16:11.338Z,84656.38
2023-10-26T15:18:38.729Z,84673.88
2023-10-26T15:21:06.996Z,84672.72
2023-10-26T15:23:34.418Z,84675.88
2023-10-26T15:26:06.559Z,84662.22
2023-10-26T15:28:34.385Z,84671.75
2023-10-26T15:31:05.538Z,84670.69
2023-10-26T15:33:32.891Z,84681.59
2023-10-26T15:36:01.521Z,84674.81
2023-10-26T15:38:29.847Z,84684.72
2023-10-26T15:41:06.155Z,84680.38
2023-10-26T15:43:34.711Z,84680.38
2023-10-26T15:46:04.434Z,84680.44
2023-10-26T15:49:32.291Z,84686.50
2023-10-26T15:51:20.558Z,84691.88
2023-10-26T15:53:48.837Z,84696.94
2023-10-26T15:56:16.352Z,84694.53
2023-10-26T15:58:43.928Z,84695.78
2023-10-26T16:01:12.255Z,84699.53
2023-10-26T16:03:40.056Z,84700.41
2023-10-26T16:06:13.377Z,84702.63
2023-10-26T16:08:42.008Z,84685.72
2023-10-26T16:11:14.685Z,84705.22
2023-10-26T16:13:46.159Z,84710.94
2023-10-26T16:16:14.288Z,84697.00
2023-10-26T16:18:47.393Z,84700.69
2023-10-26T16:21:16.439Z,84694.31
2023-10-26T16:23:44.336Z,84705.31
2023-10-26T16:26:11.688Z,84712.03
2023-10-26T16:28:39.656Z,84718.78
2023-10-26T16:31:08.474Z,84721.16
2023-10-26T16:33:38.176Z,84702.63
2023-10-26T16:36:06.013Z,84717.91
2023-10-26T16:38:33.986Z,84715.28
2023-10-26T16:41:01.875Z,84719.41
2023-10-26T16:43:29.245Z,84708.16
2023-10-26T16:45:57.777Z,84719.06
2023-10-26T16:48:27.897Z,84713.63
2023-10-26T16:50:57.636Z,84733.66
2023-10-26T16:53:31.327Z,84730.56
2023-10-26T16:56:04.953Z,84726.91
2023-10-26T16:58:33.118Z,84724.31
2023-10-26T17:01:00.856Z,84733.00
2023-10-26T17:03:28.762Z,84709.28
2023-10-26T17:05:56.293Z,84722.28
2023-10-26T17:08:23.987Z,84727.25
2023-10-26T17:10:52.003Z,84708.19
2023-10-26T17:13:21.457Z,84732.88
2023-10-26T17:15:52.835Z,84718.25
2023-10-26T17:18:21.642Z,84738.44
2023-10-26T17:20:50.072Z,84742.03
2023-10-26T17:23:17.777Z,84737.50
2023-10-26T17:25:45.330Z,84731.34
2023-10-26T17:28:12.745Z,84737.34
2023-10-26T17:30:41.048Z,84734.53
2023-10-26T17:33:12.587Z,84758.25
2023-10-26T17:35:52.657Z,84751.34
2023-10-26T17:38:20.051Z,84753.47
2023-10-26T17:40:49.254Z,84763.41
2023-10-26T17:43:16.640Z,84767.84
2023-10-26T17:45:54.743Z,84773.41
2023-10-26T17:48:22.472Z,84764.25
2023-10-26T17:50:49.900Z,84762.06
2023-10-26T17:53:17.412Z,84769.97
2023-10-26T17:55:44.889Z,84767.66
2023-10-26T17:58:13.207Z,84772.09
2023-10-26T18:00:41.131Z,84766.19
2023-10-26T18:03:08.717Z,84760.84
2023-10-26T18:05:36.923Z,84760.03
2023-10-26T18:08:04.850Z,84770.09
2023-10-26T18:10:32.466Z,84769.06
2023-10-26T18:13:00.698Z,84758.09
2023-10-26T18:15:28.339Z,84759.63
2023-10-26T18:17:55.708Z,84771.81
2023-10-26T18:20:23.070Z,84777.16
2023-10-26T18:22:50.375Z,84783.69
2023-10-26T18:25:17.795Z,84783.47
2023-10-26T18:27:45.875Z,84782.03
2023-10-26T18:30:13.545Z,84778.91
2023-10-26T18:32:40.957Z,84786.00
2023-10-26T18:35:09.228Z,84781.31
2023-10-26T18:37:37.396Z,84783.25
2023-10-26T18:40:07.202Z,84779.56
2023-10-26T18:42:34.570Z,84780.78
2023-10-26T18:45:02.384Z,84780.56
2023-10-26T18:47:31.053Z,84782.06
2023-10-26T18:49:58.706Z,84786.38
2023-10-26T18:52:26.438Z,84791.09
2023-10-26T18:54:53.791Z,84789.84
2023-10-26T18:57:21.163Z,84783.84
2023-10-26T18:59:48.605Z,84786.09
2023-10-26T19:02:16.106Z,84782.91
2023-10-26T19:04:43.491Z,84783.34
2023-10-26T19:07:12.359Z,84790.38
2023-10-26T19:09:39.837Z,84791.13
2023-10-26T19:12:07.521Z,84791.88
2023-10-26T19:14:35.019Z,84795.81
2023-10-26T19:17:04.839Z,84786.59
2023-10-26T19:19:32.314Z,84787.81
2023-10-26T19:22:00.373Z,84796.09
2023-10-26T19:24:27.784Z,84783.69
2023-10-26T19:26:55.109Z,84784.72
2023-10-26T19:29:22.423Z,84779.34
2023-10-26T19:31:49.767Z,84781.06
2023-10-26T19:34:17.552Z,84786.94
2023-10-26T19:36:45.544Z,84790.34
2023-10-26T19:39:13.301Z,84763.56
2023-10-26T19:41:41.137Z,84793.28
2023-10-26T19:44:10.862Z,84794.75
2023-10-26T19:46:40.150Z,84798.13
2023-10-26T19:49:08.431Z,84798.84
2023-10-26T19:51:36.049Z,84789.22
2023-10-26T19:54:05.102Z,84800.13
2023-10-26T19:56:32.451Z,84796.44
2023-10-26T19:58:59.780Z,84800.66
2023-10-26T20:01:27.337Z,84795.50
2023-10-26T20:03:55.202Z,84799.94
2023-10-26T20:06:22.975Z,84799.19
2023-10-26T20:08:50.204Z,84795.50
2023-10-26T20:11:17.612Z,84789.22
2023-10-26T20:13:48.472Z,84786.56
2023-10-26T20:16:16.319Z,84788.28
2023-10-26T20:18:46.111Z,84794.84
2023-10-26T20:21:13.504Z,84788.28
2023-10-26T20:23:41.104Z,84789.00
2023-10-26T20:26:08.954Z,84785.88
2023-10-26T20:28:36.462Z,84790.97
2023-10-26T20:31:05.039Z,84791.44
2023-10-26T20:33:32.709Z,84791.97
2023-10-26T20:36:00.176Z,84781.28
2023-10-26T20:38:28.009Z,84786.84
2023-10-26T20:40:55.967Z,84783.22
2023-10-26T20:43:23.828Z,84781.03
2023-10-26T20:46:01.450Z,84771.63
2023-10-26T20:48:30.481Z,84775.69
2023-10-26T20:50:59.738Z,84777.13
2023-10-26T20:53:31.026Z,84767.72
2023-10-26T20:55:59.704Z,84772.06
2023-10-26T20:58:27.206Z,84776.69
2023-10-26T21:00:54.695Z,84763.19
2023-10-26T21:03:22.953Z,84771.34
2023-10-26T21:05:51.732Z,84773.34
2023-10-26T21:08:21.026Z,84781.81
2023-10-26T21:10:48.953Z,84779.38
2023-10-26T21:13:16.520Z,84787.16
2023-10-26T21:15:44.267Z,84786.44
2023-10-26T21:18:12.215Z,84786.97
2023-10-26T21:20:41.144Z,84790.13
2023-10-26T21:23:08.827Z,84789.41
2023-10-26T21:25:36.320Z,84790.03
2023-10-26T21:28:04.113Z,84784.16
2023-10-26T21:30:31.419Z,84794.38
2023-10-26T21:32:58.938Z,84793.41
2023-10-26T21:35:28.515Z,84794.66
2023-10-26T21:37:57.074Z,84791.25
2023-10-26T21:40:25.012Z,84789.28
2023-10-26T21:42:52.809Z,84786.38
2023-10-26T21:45:20.172Z,84793.41
2023-10-26T21:47:47.659Z,84788.56
2023-10-26T21:50:15.129Z,84785.16
2023-10-26T21:52:42.457Z,84782.03
2023-10-26T21:55:09.860Z,84782.03
2023-10-26T21:57:37.302Z,84783.28
2023-10-26T22:00:07.412Z,84781.81
2023-10-26T22:02:41.240Z,84779.16
2023-10-26T22:05:09.514Z,84774.81
2023-10-26T22:07:36.856Z,84793.53
2023-10-26T22:10:06.922Z,84772.91
2023-10-26T22:12:35.779Z,84777.25
2023-10-26T22:15:04.873Z,84779.22
2023-10-26T22:17:32.340Z,84773.41
2023-10-26T22:20:00.857Z,84775.09
2023-10-26T22:22:28.357Z,84770.75
2023-10-26T22:24:55.882Z,84769.28
2023-10-26T22:27:23.808Z,84771.47
2023-10-26T22:29:50.967Z,84770.00
2023-10-26T22:32:18.327Z,84777.53
2023-10-26T22:34:45.817Z,84773.63
2023-10-26T22:37:13.305Z,84765.88
2023-10-26T22:39:41.301Z,84767.84
2023-10-26T22:42:08.906Z,84772.69
2023-10-26T22:44:36.492Z,84765.41
2023-10-26T22:47:04.350Z,84762.50
2023-10-26T22:49:31.782Z,84760.78
2023-10-26T22:51:59.130Z,84761.50
2023-10-26T22:54:26.513Z,84752.53
2023-10-26T22:56:54.009Z,84753.75
2023-10-26T22:59:22.002Z,84760.53
2023-10-26T23:01:49.346Z,84759.59
2023-10-26T23:04:17.738Z,84760.13
2023-10-26T23:06:45.374Z,84756.72
2023-10-26T23:09:15.216Z,84752.59
2023-10-26T23:11:43.055Z,84749.69
2023-10-26T23:14:11.145Z,84745.56
2023-10-26T23:16:39.626Z,84750.91
2023-10-26T23:19:07.065Z,84749.47
2023-10-26T23:21:34.528Z,84746.09
2023-10-26T23:24:04.664Z,84744.13
2023-10-26T23:26:35.333Z,84747.50
2023-10-26T23:29:04.644Z,84744.19
2023-10-26T23:31:32.076Z,84744.38
2023-10-26T23:33:59.473Z,84741.72
2023-10-26T23:36:27.019Z,84735.16
2023-10-26T23:38:54.747Z,84727.19
2023-10-26T23:41:22.391Z,84737.63
2023-10-26T23:43:49.838Z,84733.00
2023-10-26T23:46:17.219Z,84703.06
2023-10-26T23:48:44.794Z,84733.22
2023-10-26T23:51:12.316Z,84710.75
2023-10-26T23:53:39.809Z,84722.34
2023-10-26T23:56:08.005Z,84731.53
2023-10-26T23:58:35.341Z,84731.75
